Memorial Village's Hourly Summary for Thursday, July 5, 2018
Hour Temp
(f)
RH
(%)
Solar Rad.
(MJ/m2)
Rainfall
(in)
Wind
(mph)
7/5/2018 12:00 AM 71 97 0 0 0
7/5/2018 1:00 AM 71 98 0 0 0
7/5/2018 2:00 AM 71 98 0 0 0
7/5/2018 3:00 AM 71 98 0 0 0
7/5/2018 4:00 AM 71 98 0 0 0
7/5/2018 5:00 AM 71 98 0 0 0
7/5/2018 6:00 AM 71 99 0.02 0 0
7/5/2018 7:00 AM 72 99 0.13 0 0
7/5/2018 8:00 AM 76 83 0.4 0 0.01
7/5/2018 9:00 AM 82 69 0.97 0 0.05
7/5/2018 10:00 AM 85 64 1.32 0 0.1
7/5/2018 11:00 AM 87 58 1.56 0 0.06
7/5/2018 12:00 PM 89 53 2.48 0 0.13
7/5/2018 1:00 PM 91 50 2.53 0 0.23
7/5/2018 2:00 PM 89 49 1.66 0 1.15
7/5/2018 3:00 PM 82 66 0.88 0.01 0.96
7/5/2018 4:00 PM 86 55 2.36 0 1.06
7/5/2018 5:00 PM 89 52 1.68 0 0.67
7/5/2018 6:00 PM 88 51 0.81 0 0.38
7/5/2018 7:00 PM 86 58 0.22 0 0
7/5/2018 8:00 PM 84 65 0.02 0 0
7/5/2018 9:00 PM 81 61 0 0 0.3
7/5/2018 10:00 PM 78 63 0 0 0.21
7/5/2018 11:00 PM 77 86 0 0 0
Data Summary 79 73 17.04 0.01 0.22